Aérodrome :
LOGIN :

S'inscrire | Disclaimer

   EN    FR    IT 

 










Légende :    VFR   VFR Marginal   IFR   IFR Intensif   IFR Très Intensif
Visi : 
Plafond : 
>= 8 km
>= 3000ft
5 à 8 km
1000 à 3000 ft
1500m à 5 km
500 à 1000 ft
800 à 1500m
200 à 500 ft
< 800m
< 200 ft
Symboles :   Orages  Brouillard  Fortes neiges  Fortes précipitations  Vent > 20 kt
SIGMETs :   Divers  Orages  Givrage  Turbulence  Onde Orograph.  Cendres Volcan.






- Altitude de l'aérodrome : 659 ft
- Code IATA : LGG


EBLG - Liège

DERNIER METAR :
  • 211420Z 21017KT 170V230 9999 SCT026 07/02 Q0994 TEMPO 21016G26KT

METARs EXPIRÉS :
  • 211350Z 20017KT 9999 FEW026 07/02 Q0994 TEMPO 21016G26KT
  • 211320Z 20018KT 170V230 9999 FEW024 07/02 Q0994 TEMPO 21016G26KT
  • 211250Z 21019KT 9999 FEW024 07/02 Q0994 TEMPO 21020G30KT
  • 211220Z 21019KT 9999 SCT024 07/03 Q0994 TEMPO 21020G30KT

TAF TAF EBLG
Valide du 21 à 12h jusqu'au 22 à 18h UTC


211102Z 2112/2218 20016G28KT 9999 SCT020 SCT035
PROB40
TEMPO 2117/2120 4500 RA BKN014
PROB30
TEMPO 2118/2124 20020G37KT
TEMPO 2123/2203 3000 RA SHRA BKN008 BKN012
BECMG 2201/2203 30010KT
BECMG 2203/2205 24005KT



MET'MAP, la Météo Aéronautique d'un coup d'oeil ! - Copyright ORBIFLY Décembre 2007 - Disclaimer

ORBIFLY MET'MAP TEAM :

Programmation & Développement : Alexandra Zaïnal
Sur une idée originale de : Baudouin d'Aumeries
Assistance à la programmation : Marc-Olivier Méhu
Soutien technique & logistique : Manuel Goepfert

Contact : metmap@orbifly.com




SOURCES & CREDITS :

   NOAA